Time;durP1;ratioP1;P1;durP2;ratioP2;P2;SDS_P1;SDS_P2;PMS_P1;PMS_P2;Temp;Humidity;BMP_temperature;BMP_pressure;BME280_temperature;BME280_humidity;BME280_pressure;Samples;Min_cycle;Max_cycle;Signal;HPM_P1;HPM_P2
2023/08/30 00:00:05;;;;;;;11.40;8.27;;;;;;;14.38;92.09;99012.16;4860052;29;20057;-58
2023/08/30 00:02:32;;;;;;;14.68;8.18;;;;;;;14.37;92.69;99015.91;4859750;29;20424;-58
2023/08/30 00:04:59;;;;;;;8.88;6.72;;;;;;;14.38;92.02;99012.16;4859368;29;20049;-58
2023/08/30 00:07:25;;;;;;;7.75;5.50;;;;;;;14.38;91.17;99012.16;4859379;29;20049;-57
2023/08/30 00:09:50;;;;;;;8.18;6.22;;;;;;;14.41;91.31;99016.94;4859390;29;20049;-58
2023/08/30 00:12:16;;;;;;;8.93;6.47;;;;;;;14.45;91.03;99018.81;4859625;29;20049;-57
2023/08/30 00:14:42;;;;;;;9.48;6.55;;;;;;;14.46;90.76;99006.25;4859420;29;20046;-59
2023/08/30 00:17:07;;;;;;;7.35;5.78;;;;;;;14.45;90.20;99015.34;4859363;29;20057;-57
2023/08/30 00:19:33;;;;;;;7.80;5.55;;;;;;;14.44;90.34;99021.72;4859581;29;20062;-57
2023/08/30 00:21:59;;;;;;;7.70;5.32;;;;;;;14.45;90.15;99012.69;4858938;29;20053;-56
2023/08/30 00:24:24;;;;;;;7.00;5.18;;;;;;;14.44;90.24;99016.41;4859521;29;20053;-59
2023/08/30 00:26:50;;;;;;;7.90;5.47;;;;;;;14.35;90.14;99026.81;4858126;29;20132;-57
2023/08/30 00:29:15;;;;;;;8.93;5.85;;;;;;;14.42;90.90;99021.22;4859674;29;20053;-60
2023/08/30 00:31:41;;;;;;;8.80;6.30;;;;;;;14.39;90.65;99022.56;4859228;29;20080;-57
2023/08/30 00:34:07;;;;;;;8.85;6.05;;;;;;;14.41;90.56;99017.75;4858157;29;20053;-60
2023/08/30 00:36:32;;;;;;;9.68;5.80;;;;;;;14.38;90.64;99009.47;4873555;29;20054;-57
2023/08/30 00:38:58;;;;;;;8.65;6.30;;;;;;;14.39;91.05;99017.22;4857866;29;20053;-57
2023/08/30 00:41:24;;;;;;;10.77;6.60;;;;;;;14.38;90.63;99026.28;4858048;29;20041;-59
2023/08/30 00:43:49;;;;;;;8.27;6.00;;;;;;;14.36;90.42;99027.63;4859524;29;20128;-55
2023/08/30 00:46:16;;;;;;;10.55;6.55;;;;;;;14.37;90.51;99037.22;4857917;29;20053;-57
2023/08/30 00:48:43;;;;;;;12.35;6.80;;;;;;;14.29;90.28;99039.38;4842718;29;20045;-56
2023/08/30 00:51:08;;;;;;;8.60;6.00;;;;;;;14.25;90.89;99040.97;4842453;29;20056;-57
2023/08/30 00:53:34;;;;;;;7.70;6.05;;;;;;;14.28;90.52;99047.63;4842542;29;20037;-57
2023/08/30 00:55:59;;;;;;;7.97;6.22;;;;;;;14.24;90.21;99038.59;4859031;29;20194;-58
2023/08/30 00:58:26;;;;;;;8.52;5.85;;;;;;;14.23;89.67;99045.78;4873311;29;20045;-54
2023/08/30 01:00:53;;;;;;;10.25;6.25;;;;;;;14.23;89.07;99047.63;4859288;29;20077;-58
2023/08/30 01:03:20;;;;;;;8.30;6.22;;;;;;;14.21;89.49;99050.59;4857649;29;20060;-56
2023/08/30 01:05:45;;;;;;;9.35;6.00;;;;;;;14.24;89.40;99047.38;4857430;29;20139;-58
2023/08/30 01:08:11;;;;;;;12.52;6.45;;;;;;;14.25;89.52;99048.97;4858955;29;20105;-56
2023/08/30 01:10:52;;;;;;;9.27;6.85;;;;;;;14.26;88.93;99044.44;4858576;29;20053;-58
2023/08/30 01:13:22;;;;;;;8.68;6.32;;;;;;;14.23;88.75;99051.09;4873242;29;20077;-55
2023/08/30 01:15:49;;;;;;;9.18;6.53;;;;;;;14.18;89.12;99043.13;4857571;29;20438;-55
2023/08/30 01:18:18;;;;;;;10.70;6.75;;;;;;;14.11;89.28;99053.25;4860188;29;20033;-57
2023/08/30 01:20:45;;;;;;;8.00;6.35;;;;;;;14.13;89.25;99053.00;4861293;29;20144;-57
2023/08/30 01:23:29;;;;;;;10.00;6.60;;;;;;;14.07;89.12;99046.88;4861407;29;20053;-57
2023/08/30 01:26:12;;;;;;;11.30;6.88;;;;;;;14.03;89.53;99056.47;4862316;29;20065;-57
2023/08/30 01:28:39;;;;;;;10.88;6.40;;;;;;;14.02;89.63;99049.53;4860905;29;20084;-56
2023/08/30 01:31:09;;;;;;;9.50;6.57;;;;;;;13.94;89.47;99048.22;4862527;29;20054;-58
2023/08/30 01:33:36;;;;;;;9.43;6.57;;;;;;;13.95;89.30;99051.69;4860959;29;20052;-56
2023/08/30 01:36:03;;;;;;;9.80;6.82;;;;;;;13.94;89.57;99055.41;4861087;29;20481;-57
2023/08/30 01:38:29;;;;;;;8.57;6.15;;;;;;;13.91;89.84;99051.41;4861006;29;20045;-56
2023/08/30 01:40:57;;;;;;;10.98;6.95;;;;;;;13.89;89.59;99050.09;4846051;29;20049;-56
2023/08/30 01:43:23;;;;;;;10.73;7.38;;;;;;;13.87;89.60;99055.69;4846077;29;20049;-56
2023/08/30 01:45:49;;;;;;;9.90;7.25;;;;;;;13.87;89.51;99053.00;4845952;29;20477;-58
2023/08/30 01:48:16;;;;;;;11.02;7.78;;;;;;;13.85;89.47;99058.63;4862742;29;20053;-55
2023/08/30 01:50:43;;;;;;;11.18;7.47;;;;;;;13.84;89.84;99065.00;4862765;29;20057;-56
2023/08/30 01:53:12;;;;;;;10.07;7.18;;;;;;;13.82;90.22;99063.66;4862774;29;20046;-56
2023/08/30 01:55:38;;;;;;;11.10;7.57;;;;;;;13.82;90.43;99055.66;4830491;29;20049;-57
2023/08/30 01:58:06;;;;;;;11.85;7.57;;;;;;;13.81;89.95;99062.06;4830522;29;20544;-57
2023/08/30 02:00:31;;;;;;;10.48;7.32;;;;;;;13.77;90.37;99069.81;4861000;29;20428;-57
2023/08/30 02:02:58;;;;;;;12.30;7.95;;;;;;;13.80;90.17;99063.16;4860936;29;20076;-58
2023/08/30 02:05:24;;;;;;;14.13;7.25;;;;;;;13.77;90.11;99051.16;4861869;29;20080;-58
2023/08/30 02:08:13;;;;;;;10.98;7.45;;;;;;;13.72;90.61;99056.47;4845112;29;20099;-57
2023/08/30 02:10:41;;;;;;;11.90;7.50;;;;;;;13.60;90.78;99045.28;4860781;29;20049;-57
2023/08/30 02:13:07;;;;;;;14.82;8.27;;;;;;;13.45;91.92;99046.06;4860591;29;20145;-57
2023/08/30 02:15:33;;;;;;;11.52;7.55;;;;;;;13.39;92.71;99045.25;4861549;29;20145;-59
2023/08/30 02:18:00;;;;;;;10.60;7.50;;;;;;;13.32;92.66;99044.69;4860308;29;20045;-57
2023/08/30 02:20:26;;;;;;;12.70;7.68;;;;;;;13.33;92.40;99046.31;4861745;29;20344;-58
2023/08/30 02:22:51;;;;;;;11.18;6.68;;;;;;;13.37;90.88;99047.38;4860276;29;20056;-56
2023/08/30 02:25:17;;;;;;;9.23;6.82;;;;;;;13.43;90.57;99053.50;4861055;29;20037;-60
2023/08/30 02:27:42;;;;;;;9.52;7.05;;;;;;;13.44;90.52;99051.63;4861488;29;20053;-58
2023/08/30 02:30:08;;;;;;;12.00;7.28;;;;;;;13.46;90.24;99073.50;4859410;29;20121;-58
2023/08/30 02:32:34;;;;;;;12.90;7.43;;;;;;;13.45;90.00;99075.34;4860075;29;20049;-56
2023/08/30 02:35:00;;;;;;;10.32;6.60;;;;;;;13.42;89.67;99070.56;4844688;29;20045;-56
2023/08/30 02:37:26;;;;;;;12.55;7.05;;;;;;;13.39;90.18;99073.75;4858941;29;20049;-56
2023/08/30 02:39:51;;;;;;;10.45;7.10;;;;;;;13.35;90.28;99081.47;4861056;29;20092;-59
2023/08/30 02:42:17;;;;;;;12.30;7.72;;;;;;;13.32;90.19;99079.31;4859833;29;20045;-57
2023/08/30 02:44:43;;;;;;;11.02;7.53;;;;;;;13.33;90.75;99080.91;4844496;29;20053;-59
2023/08/30 02:47:08;;;;;;;9.98;6.82;;;;;;;13.33;90.61;99086.25;4860478;29;20594;-58
2023/08/30 02:49:34;;;;;;;11.27;6.80;;;;;;;13.39;90.50;99084.41;4859530;29;20049;-57
2023/08/30 02:52:00;;;;;;;8.00;6.10;;;;;;;13.42;89.75;99085.75;4860695;29;20041;-57
2023/08/30 02:54:25;;;;;;;9.40;6.45;;;;;;;13.44;89.24;99087.06;4859680;29;20068;-59
2023/08/30 02:56:51;;;;;;;7.95;5.80;;;;;;;13.45;89.33;99077.22;4860834;29;20046;-58
2023/08/30 02:59:17;;;;;;;7.47;5.47;;;;;;;13.50;88.28;99083.38;4859862;29;20163;-58
2023/08/30 03:01:44;;;;;;;8.38;5.68;;;;;;;13.52;88.56;99083.09;4875195;29;20079;-57
2023/08/30 03:04:11;;;;;;;8.32;5.85;;;;;;;13.57;88.39;99073.25;4844203;29;20045;-56
2023/08/30 03:06:37;;;;;;;9.05;5.80;;;;;;;13.55;88.54;99070.03;4843937;29;20046;-58
2023/08/30 03:09:04;;;;;;;7.43;5.53;;;;;;;13.58;88.01;99079.34;4859436;29;20061;-58
2023/08/30 03:11:33;;;;;;;8.63;6.25;;;;;;;13.59;87.90;99073.00;4860464;29;20208;-56
2023/08/30 03:13:59;;;;;;;9.65;6.05;;;;;;;13.61;87.76;99065.50;4859268;29;20491;-58
2023/08/30 03:16:24;;;;;;;7.15;5.97;;;;;;;13.64;88.22;99064.97;4860313;29;20073;-55
2023/08/30 03:18:51;;;;;;;8.85;6.50;;;;;;;13.64;88.24;99062.31;4859197;29;20098;-58
2023/08/30 03:21:17;;;;;;;9.70;6.70;;;;;;;13.67;87.89;99068.97;4860373;29;20073;-58
2023/08/30 03:23:43;;;;;;;10.10;7.00;;;;;;;13.67;88.28;99064.44;4860090;29;20049;-59
2023/08/30 03:26:10;;;;;;;12.50;7.03;;;;;;;13.80;87.73;99061.28;4858658;29;20097;-58
2023/08/30 03:28:36;;;;;;;9.85;6.50;;;;;;;13.94;86.96;99071.38;4859124;29;20132;-57
2023/08/30 03:31:02;;;;;;;9.48;6.25;;;;;;;13.97;85.92;99081.50;4843523;29;20535;-59
2023/08/30 03:33:28;;;;;;;7.20;5.50;;;;;;;13.97;85.67;99087.66;4858924;29;20045;-58
2023/08/30 03:35:53;;;;;;;12.40;5.53;;;;;;;13.96;86.02;99093.25;4860108;29;20061;-59
2023/08/30 03:38:19;;;;;;;10.18;6.15;;;;;;;13.98;85.49;99093.78;4858736;29;20053;-58
2023/08/30 03:40:45;;;;;;;7.72;5.00;;;;;;;13.98;85.82;99094.59;4858725;29;20072;-59
2023/08/30 03:43:10;;;;;;;7.93;5.80;;;;;;;14.02;85.96;99097.50;4858783;29;20049;-58
2023/08/30 03:45:37;;;;;;;7.57;5.20;;;;;;;14.04;85.44;99087.38;4858544;29;20072;-57
2023/08/30 03:48:04;;;;;;;6.03;4.93;;;;;;;14.05;85.12;99087.09;4858587;29;20057;-58
2023/08/30 03:50:30;;;;;;;7.47;5.50;;;;;;;13.99;85.14;99082.84;4858500;29;20049;-60
2023/08/30 03:52:56;;;;;;;7.03;5.43;;;;;;;14.03;84.41;99078.59;4860091;29;20094;-55
2023/08/30 03:55:22;;;;;;;9.55;5.63;;;;;;;13.98;85.24;99083.91;4858571;29;20511;-57
2023/08/30 03:57:48;;;;;;;7.15;5.20;;;;;;;14.04;85.23;99082.06;4858628;29;20137;-58
2023/08/30 04:00:14;;;;;;;7.20;5.53;;;;;;;14.15;84.67;99082.84;4858409;29;20140;-59
2023/08/30 04:02:40;;;;;;;9.25;5.65;;;;;;;14.19;84.11;99095.38;4859731;29;20049;-57
2023/08/30 04:05:08;;;;;;;8.75;4.90;;;;;;;14.22;84.07;99091.38;4857146;29;20056;-58
2023/08/30 04:07:36;;;;;;;7.88;5.30;;;;;;;14.28;83.57;99093.75;4842671;29;20045;-58
2023/08/30 04:10:05;;;;;;;7.43;5.32;;;;;;;14.34;83.58;99096.44;4859350;29;20049;-57
2023/08/30 04:12:31;;;;;;;7.82;5.15;;;;;;;14.36;83.63;99100.41;4859368;29;20517;-57
2023/08/30 04:14:57;;;;;;;6.53;5.18;;;;;;;14.41;83.30;99089.75;4857853;29;20117;-58
2023/08/30 04:17:23;;;;;;;8.77;5.22;;;;;;;14.50;83.33;99090.81;4857901;29;20447;-57
2023/08/30 04:19:52;;;;;;;7.00;5.30;;;;;;;14.57;82.57;99084.41;4859460;29;20140;-58
2023/08/30 04:22:19;;;;;;;8.63;5.78;;;;;;;14.69;82.46;99080.38;4859421;29;20087;-57
2023/08/30 04:24:46;;;;;;;6.93;5.07;;;;;;;14.76;81.48;99075.56;4858085;29;20171;-57
2023/08/30 04:27:12;;;;;;;7.40;5.43;;;;;;;14.86;81.53;99084.59;4857906;29;20072;-58
2023/08/30 04:29:38;;;;;;;7.55;5.30;;;;;;;14.90;80.65;99091.78;4858036;29;20508;-59
2023/08/30 04:32:04;;;;;;;8.32;5.95;;;;;;;14.94;80.53;99103.50;4873511;29;20084;-58
2023/08/30 04:34:30;;;;;;;7.82;5.22;;;;;;;14.97;80.19;99107.47;4842519;29;20045;-58
2023/08/30 04:36:57;;;;;;;6.03;4.93;;;;;;;14.92;80.94;99107.53;4857306;29;20085;-57
2023/08/30 04:39:22;;;;;;;7.40;4.93;;;;;;;14.98;80.12;99106.44;4857918;29;20083;-58
2023/08/30 04:41:49;;;;;;;9.23;5.40;;;;;;;14.95;79.95;99102.44;4857868;29;20420;-59
2023/08/30 04:44:17;;;;;;;8.70;5.47;;;;;;;15.03;80.34;99100.25;4857895;29;20060;-59
2023/08/30 04:46:43;;;;;;;6.65;5.13;;;;;;;15.04;79.32;99104.53;4857436;29;20053;-57
2023/08/30 04:49:08;;;;;;;7.72;5.18;;;;;;;15.08;79.20;99094.91;4842055;29;20046;-59
2023/08/30 04:51:34;;;;;;;9.57;4.95;;;;;;;15.18;78.60;99095.66;4827150;29;20097;-58
2023/08/30 04:54:00;;;;;;;8.48;5.32;;;;;;;15.34;77.88;99091.03;4857764;29;20424;-59
2023/08/30 04:56:26;;;;;;;8.15;4.78;;;;;;;15.53;77.19;99090.38;4857777;29;20132;-59
2023/08/30 04:58:53;;;;;;;8.75;5.22;;;;;;;15.79;76.33;99083.03;4841642;29;20057;-58
2023/08/30 05:01:18;;;;;;;7.18;5.80;;;;;;;15.91;74.77;99078.13;4857805;29;20045;-59
2023/08/30 05:03:48;;;;;;;;;;;;;;;15.86;74.67;99080.84;4858032;29;20072;-58
2023/08/30 05:06:16;;;;;;;8.50;5.18;;;;;;;15.85;74.90;99080.06;4857680;29;20314;-57
2023/08/30 05:08:42;;;;;;;7.93;5.78;;;;;;;15.87;74.81;99083.22;4839195;29;20102;-58
2023/08/30 05:11:08;;;;;;;9.32;6.03;;;;;;;15.85;75.13;99088.06;4824190;29;20540;-60
2023/08/30 05:13:36;;;;;;;6.97;5.20;;;;;;;15.97;74.71;99097.59;4838543;29;20046;-58
2023/08/30 05:16:02;;;;;;;6.45;4.97;;;;;;;16.16;74.53;99108.41;4840276;29;20062;-58
2023/08/30 05:18:27;;;;;;;8.65;5.40;;;;;;;16.38;73.14;99095.34;4808864;29;20054;-56
2023/08/30 05:20:53;;;;;;;6.25;5.00;;;;;;;16.43;72.51;99092.63;4838881;29;20057;-58
2023/08/30 05:23:19;;;;;;;7.18;5.75;;;;;;;16.42;72.96;99091.03;4840556;29;20046;-58
2023/08/30 05:25:44;;;;;;;8.23;5.95;;;;;;;16.38;72.32;99081.19;4839029;29;20046;-57
2023/08/30 05:28:10;;;;;;;7.97;5.40;;;;;;;16.23;73.44;99074.88;4839006;29;20343;-57
2023/08/30 05:30:36;;;;;;;10.48;5.78;;;;;;;16.23;73.35;99072.22;4839063;29;20133;-60
2023/08/30 05:33:12;;;;;;;6.82;5.10;;;;;;;16.28;73.25;99071.38;4838936;29;20049;-56
2023/08/30 05:35:43;;;;;;;7.93;5.43;;;;;;;16.28;72.96;99082.88;4809342;29;20167;-57
2023/08/30 05:38:23;;;;;;;8.27;5.60;;;;;;;16.35;72.76;99088.72;4838836;29;20560;-57
2023/08/30 05:40:59;;;;;;;7.20;5.85;;;;;;;16.41;72.79;99104.69;4823762;29;20050;-58
2023/08/30 05:43:25;;;;;;;7.50;5.60;;;;;;;16.53;72.30;99089.88;4838966;29;20449;-58
2023/08/30 05:45:51;;;;;;;6.05;4.60;;;;;;;16.64;72.53;99087.06;4854308;29;20054;-58
2023/08/30 05:48:16;;;;;;;7.10;5.35;;;;;;;16.61;71.51;99101.00;4839147;29;20038;-58
2023/08/30 05:50:42;;;;;;;8.88;5.25;;;;;;;16.48;72.05;99097.94;4838846;29;20508;-60
2023/08/30 05:53:07;;;;;;;6.10;4.47;;;;;;;16.66;71.86;99090.25;4838912;29;20504;-58
2023/08/30 05:55:33;;;;;;;7.78;5.18;;;;;;;16.74;71.41;99089.66;4838929;29;20574;-60
2023/08/30 05:57:59;;;;;;;5.68;4.85;;;;;;;16.69;71.58;99105.75;4837983;29;20053;-57
2023/08/30 06:00:25;;;;;;;8.50;5.18;;;;;;;16.72;71.65;99105.19;4823545;29;20083;-58
2023/08/30 06:02:52;;;;;;;7.10;5.10;;;;;;;16.75;71.59;99101.94;4851600;29;20056;-59
2023/08/30 06:05:18;;;;;;;9.98;4.93;;;;;;;16.63;71.88;99105.00;4861039;29;20080;-56
2023/08/30 06:07:44;;;;;;;6.05;5.00;;;;;;;16.55;72.38;99101.06;4830794;29;20054;-58
2023/08/30 06:10:10;;;;;;;6.40;4.57;;;;;;;16.59;72.49;99098.63;4859777;29;20076;-59
2023/08/30 06:12:35;;;;;;;7.53;4.45;;;;;;;16.73;71.50;99090.72;4860640;29;20516;-60
2023/08/30 06:15:01;;;;;;;4.72;3.95;;;;;;;16.71;71.12;99099.03;4861482;29;20049;-60
2023/08/30 06:17:27;;;;;;;5.47;4.72;;;;;;;16.78;70.63;99101.41;4860006;29;20085;-58
2023/08/30 06:19:53;;;;;;;4.70;4.20;;;;;;;16.87;70.12;99098.88;4861507;29;20053;-59
2023/08/30 06:22:18;;;;;;;5.45;4.25;;;;;;;16.99;69.96;99093.91;4868451;29;20516;-61
2023/08/30 06:24:44;;;;;;;5.43;4.30;;;;;;;16.96;70.10;99092.59;4879694;29;20041;-58
2023/08/30 06:27:09;;;;;;;6.25;4.65;;;;;;;17.09;69.26;99098.34;4862720;29;20045;-57
2023/08/30 06:29:36;;;;;;;4.88;4.20;;;;;;;17.22;68.81;99101.13;4861141;29;20052;-59
2023/08/30 06:32:02;;;;;;;6.55;4.68;;;;;;;17.27;68.51;99099.47;4860143;29;20133;-58
2023/08/30 06:34:28;;;;;;;6.10;4.65;;;;;;;17.30;68.37;99101.59;4860686;29;20599;-58
2023/08/30 06:36:53;;;;;;;5.85;4.40;;;;;;;17.38;67.87;99100.91;4860843;29;20144;-58
2023/08/30 06:39:19;;;;;;;5.78;4.30;;;;;;;17.50;67.34;99103.97;4860931;29;20568;-60
2023/08/30 06:41:44;;;;;;;4.70;4.28;;;;;;;17.59;67.30;99107.59;4860681;29;20038;-60
2023/08/30 06:44:13;;;;;;;5.63;4.38;;;;;;;17.78;66.42;99099.56;4859170;29;20059;-57
2023/08/30 06:46:39;;;;;;;4.88;4.30;;;;;;;17.84;66.24;99101.06;4860380;29;20053;-59
2023/08/30 06:49:05;;;;;;;4.88;4.20;;;;;;;17.88;66.29;99103.97;4859571;29;20140;-59
2023/08/30 06:51:31;;;;;;;5.72;4.32;;;;;;;17.75;66.17;99102.78;4860406;29;20124;-57
2023/08/30 06:54:00;;;;;;;7.65;4.38;;;;;;;17.69;66.47;99103.97;4859398;29;20049;-56
2023/08/30 06:56:26;;;;;;;7.32;4.18;;;;;;;17.74;66.47;99109.25;4859766;29;20129;-58
2023/08/30 06:58:52;;;;;;;4.75;3.90;;;;;;;17.87;66.84;99110.41;4860923;29;20049;-57
2023/08/30 07:01:18;;;;;;;5.55;4.40;;;;;;;17.91;65.82;99106.06;4860594;29;20056;-60
2023/08/30 07:03:44;;;;;;;6.05;4.57;;;;;;;17.84;66.29;99108.31;4860915;29;20528;-58
2023/08/30 07:06:10;;;;;;;5.65;4.40;;;;;;;18.02;65.30;99112.06;4858985;29;20052;-59
2023/08/30 07:08:35;;;;;;;4.28;3.85;;;;;;;18.12;65.16;99107.34;4858682;29;20407;-58
2023/08/30 07:11:02;;;;;;;6.53;4.10;;;;;;;18.31;64.59;99115.31;4857209;29;20049;-60
2023/08/30 07:13:28;;;;;;;7.15;4.00;;;;;;;18.38;64.16;99112.25;4858476;29;20049;-57
2023/08/30 07:15:54;;;;;;;7.78;4.18;;;;;;;18.47;63.56;99121.25;4857803;29;20077;-58
2023/08/30 07:18:19;;;;;;;5.78;3.90;;;;;;;18.35;63.55;99119.03;4857900;29;20042;-56
2023/08/30 07:20:45;;;;;;;5.65;3.83;;;;;;;18.23;63.90;99109.84;4859918;29;20179;-59
2023/08/30 07:23:11;;;;;;;4.53;3.85;;;;;;;17.90;64.00;99115.19;4859962;29;20132;-57
2023/08/30 07:25:37;;;;;;;5.18;3.67;;;;;;;17.78;65.03;99112.19;4859875;29;20080;-61
2023/08/30 07:28:04;;;;;;;4.38;3.75;;;;;;;17.77;65.23;99115.91;4860139;29;20496;-55
2023/08/30 07:30:30;;;;;;;5.45;4.00;;;;;;;17.81;65.53;99116.94;4858825;29;20053;-57
2023/08/30 07:32:56;;;;;;;5.63;3.90;;;;;;;17.89;65.35;99111.72;4859990;29;20049;-58
2023/08/30 07:35:21;;;;;;;5.55;4.30;;;;;;;17.97;65.34;99112.97;4858060;29;20053;-58
2023/08/30 07:37:47;;;;;;;5.40;4.00;;;;;;;18.09;64.68;99117.88;4859919;29;20298;-58
2023/08/30 07:40:13;;;;;;;6.15;3.70;;;;;;;18.16;64.53;99115.59;4858445;29;20499;-56
2023/08/30 07:42:39;;;;;;;4.68;3.25;;;;;;;18.32;62.99;99116.94;4858384;29;20108;-59
2023/08/30 07:45:05;;;;;;;4.30;3.30;;;;;;;18.40;63.11;99126.19;4858783;29;20061;-59
2023/08/30 07:47:31;;;;;;;4.82;3.25;;;;;;;18.50;62.89;99134.06;4859099;29;20052;-55
2023/08/30 07:49:57;;;;;;;4.18;3.78;;;;;;;18.70;62.03;99140.94;4860301;29;20053;-56
2023/08/30 07:52:23;;;;;;;4.25;3.50;;;;;;;18.67;61.57;99130.78;4858339;29;20046;-57
2023/08/30 07:54:48;;;;;;;4.47;3.33;;;;;;;18.64;61.56;99131.38;4859801;29;20073;-59
2023/08/30 07:57:14;;;;;;;4.80;3.42;;;;;;;18.78;62.30;99129.53;4857147;29;20041;-58
2023/08/30 07:59:39;;;;;;;4.65;3.72;;;;;;;18.83;61.45;99136.72;4859648;29;20045;-61
2023/08/30 08:02:08;;;;;;;4.20;3.80;;;;;;;19.13;61.38;99129.94;4858106;29;20519;-59
2023/08/30 08:04:35;;;;;;;5.13;3.83;;;;;;;19.15;61.10;99135.00;4858384;29;20411;-57
2023/08/30 08:07:01;;;;;;;4.57;3.55;;;;;;;19.03;60.26;99139.00;4858283;29;20045;-57
2023/08/30 08:09:27;;;;;;;4.45;3.38;;;;;;;18.82;61.25;99137.78;4859150;29;20051;-57
2023/08/30 08:11:53;;;;;;;4.30;3.65;;;;;;;18.70;61.31;99122.13;4858674;29;20073;-57
2023/08/30 08:14:19;;;;;;;4.20;3.10;;;;;;;18.73;61.33;99123.44;4842518;29;20056;-58
2023/08/30 08:16:45;;;;;;;3.92;3.38;;;;;;;18.77;61.05;99145.97;4841895;29;20053;-58
2023/08/30 08:19:12;;;;;;;3.92;3.10;;;;;;;18.74;60.84;99139.28;4858253;29;20072;-59
2023/08/30 08:21:38;;;;;;;3.22;2.92;;;;;;;18.86;60.88;99146.84;4859071;29;20049;-61
2023/08/30 08:24:04;;;;;;;4.47;3.15;;;;;;;18.94;61.33;99156.09;4842281;29;20571;-61
2023/08/30 08:26:35;;;;;;;5.80;2.92;;;;;;;19.03;60.21;99157.00;4858342;29;20049;-59
2023/08/30 08:29:01;;;;;;;4.13;3.03;;;;;;;19.21;59.96;99168.75;4859372;29;20072;-58
2023/08/30 08:31:27;;;;;;;3.08;2.70;;;;;;;19.30;59.29;99148.13;4857846;29;20377;-58
2023/08/30 08:34:07;;;;;;;3.47;2.97;;;;;;;19.57;58.48;99149.19;4858973;29;20066;-58
2023/08/30 08:36:33;;;;;;;3.90;3.47;;;;;;;19.62;58.42;99154.44;4859026;29;20073;-60
2023/08/30 08:38:58;;;;;;;3.35;3.05;;;;;;;19.43;58.81;99152.69;4858766;29;20136;-58
2023/08/30 08:41:27;;;;;;;4.30;2.95;;;;;;;19.56;58.77;99161.84;4858726;29;20073;-60
2023/08/30 08:43:53;;;;;;;5.00;3.47;;;;;;;19.44;59.09;99156.97;4858828;29;20420;-58
2023/08/30 08:46:19;;;;;;;3.45;3.15;;;;;;;19.41;58.99;99162.97;4858715;29;20046;-58
2023/08/30 08:48:46;;;;;;;3.58;2.80;;;;;;;19.62;58.73;99175.94;4859222;29;20044;-58
2023/08/30 08:51:12;;;;;;;3.65;3.33;;;;;;;19.60;57.96;99173.56;4858441;29;20053;-59
2023/08/30 08:57:50;;;;;;;6.47;3.42;;;;;;;19.28;59.19;99171.81;4844460;29;20053;-59
2023/08/30 09:00:18;;;;;;;4.55;2.90;;;;;;;19.21;59.62;99166.84;4840946;29;20526;-57
2023/08/30 09:02:44;;;;;;;3.42;3.13;;;;;;;19.19;59.44;99169.03;4856251;29;20049;-57
2023/08/30 09:05:10;;;;;;;4.60;3.45;;;;;;;19.44;59.15;99166.91;4857219;29;20548;-58
2023/08/30 09:07:35;;;;;;;3.95;3.20;;;;;;;19.47;58.51;99163.63;4858853;29;20041;-58
2023/08/30 09:10:01;;;;;;;5.50;3.22;;;;;;;19.37;58.67;99172.69;4857501;29;20449;-60
2023/08/30 09:12:27;;;;;;;4.28;3.20;;;;;;;19.32;59.35;99180.06;4858645;29;20479;-59
2023/08/30 09:14:56;;;;;;;3.75;2.97;;;;;;;19.17;59.88;99187.34;4857101;29;20053;-59
2023/08/30 09:17:22;;;;;;;5.57;3.42;;;;;;;19.10;59.97;99181.56;4858328;29;20054;-57
2023/08/30 09:19:48;;;;;;;3.80;2.88;;;;;;;19.28;59.43;99179.88;4858163;29;20543;-62
2023/08/30 09:22:13;;;;;;;5.13;3.30;;;;;;;19.24;59.24;99176.22;4858514;29;20053;-60
2023/08/30 09:24:39;;;;;;;4.72;3.50;;;;;;;19.20;59.34;99180.56;4858639;29;20200;-60
2023/08/30 09:27:06;;;;;;;3.78;2.97;;;;;;;19.11;59.75;99179.69;4858405;29;20049;-58
2023/08/30 09:29:31;;;;;;;3.22;2.78;;;;;;;19.14;59.27;99171.03;4857090;29;20053;-59
2023/08/30 09:31:57;;;;;;;5.40;3.20;;;;;;;19.16;59.26;99169.63;4857005;29;20056;-58
2023/08/30 09:34:27;;;;;;;5.95;2.97;;;;;;;19.20;59.59;99180.56;4857037;29;20049;-56
2023/08/30 09:36:54;;;;;;;3.75;2.85;;;;;;;19.38;58.87;99179.66;4858367;29;20509;-55
2023/08/30 09:39:19;;;;;;;4.18;3.00;;;;;;;19.51;58.43;99180.75;4860805;29;20065;-61
2023/08/30 09:41:49;;;;;;;6.30;2.92;;;;;;;19.39;59.08;99192.00;4860384;29;20075;-59
2023/08/30 09:44:18;;;;;;;7.20;3.05;;;;;;;19.35;59.38;99196.38;4860329;29;20085;-57
2023/08/30 09:46:54;;;;;;;3.80;3.20;;;;;;;19.46;58.13;99197.78;4859002;29;20052;-59
2023/08/30 09:49:24;;;;;;;3.42;3.13;;;;;;;19.41;58.73;99199.75;4861473;29;20072;-59
2023/08/30 09:51:51;;;;;;;;;;;;;;;19.85;57.41;99195.63;4861882;29;20057;-57
2023/08/30 09:54:19;;;;;;;4.32;3.17;;;;;;;19.98;56.90;99207.47;4860333;29;19931;-58
2023/08/30 09:56:45;;;;;;;3.58;2.90;;;;;;;20.05;57.18;99214.00;4860184;29;20057;-59
2023/08/30 09:59:13;;;;;;;3.30;2.70;;;;;;;20.13;56.59;99215.19;4860608;29;20049;-57
2023/08/30 10:01:39;;;;;;;4.55;3.00;;;;;;;19.90;56.96;99215.16;4861079;29;20037;-59
2023/08/30 10:04:06;;;;;;;4.10;3.03;;;;;;;19.71;58.17;99223.38;4861560;29;20438;-57
2023/08/30 10:06:32;;;;;;;4.07;3.28;;;;;;;19.73;57.51;99221.16;4861126;29;20046;-60
2023/08/30 10:08:59;;;;;;;5.97;3.60;;;;;;;19.71;58.02;99219.88;4859994;29;20058;-59
2023/08/30 10:11:24;;;;;;;4.10;3.13;;;;;;;19.85;57.22;99217.94;4861246;29;20060;-60
2023/08/30 10:13:54;;;;;;;5.35;3.40;;;;;;;19.95;56.69;99227.69;4861421;29;20492;-58
2023/08/30 10:16:22;;;;;;;6.13;3.25;;;;;;;20.18;56.18;99217.78;4861153;29;20512;-59
2023/08/30 10:18:55;;;;;;;3.72;3.20;;;;;;;20.12;56.19;99214.41;4861255;29;20068;-59
2023/08/30 10:21:21;;;;;;;3.75;3.03;;;;;;;19.95;56.82;99215.03;4861376;29;20393;-57
2023/08/30 10:23:49;;;;;;;3.90;3.50;;;;;;;19.69;57.25;99216.69;4844406;29;20555;-59
2023/08/30 10:26:16;;;;;;;5.18;3.63;;;;;;;19.64;57.80;99217.56;4844455;29;20140;-58
2023/08/30 10:28:42;;;;;;;4.50;3.47;;;;;;;19.43;58.20;99217.19;4859785;29;20068;-60
2023/08/30 10:31:08;;;;;;;4.00;2.78;;;;;;;19.48;58.28;99217.09;4860869;29;20062;-57
2023/08/30 10:33:47;;;;;;;4.70;3.20;;;;;;;19.40;58.81;99212.41;4861162;29;20050;-58
2023/08/30 10:36:20;;;;;;;4.23;3.53;;;;;;;19.56;58.32;99212.09;4860924;29;20050;-61
2023/08/30 10:38:49;;;;;;;5.35;3.17;;;;;;;19.68;57.85;99202.47;4861180;29;20367;-59
2023/08/30 10:41:25;;;;;;;4.25;3.08;;;;;;;19.84;57.31;99197.53;4860764;29;20046;-58
2023/08/30 10:43:52;;;;;;;4.75;3.13;;;;;;;19.89;57.34;99202.81;4844018;29;20037;-57
2023/08/30 10:46:33;;;;;;;4.10;3.22;;;;;;;20.02;57.03;99209.22;4860900;29;20060;-59
2023/08/30 10:49:28;;;;;;;4.43;3.42;;;;;;;20.19;56.28;99212.06;4860550;29;20046;-59
2023/08/30 10:51:58;;;;;;;5.65;3.28;;;;;;;20.31;56.15;99210.72;4852316;29;20049;-59
2023/08/30 10:54:24;;;;;;;;;;;;;;;20.29;55.59;99208.31;4859673;29;20485;-58
2023/08/30 10:56:59;;;;;;;4.53;3.38;;;;;;;20.19;56.22;99203.19;4859978;29;20525;-59
2023/08/30 10:59:25;;;;;;;4.70;3.20;;;;;;;20.29;55.66;99200.25;4860462;29;20057;-60
2023/08/30 11:01:52;;;;;;;4.30;3.53;;;;;;;20.25;55.72;99210.06;4860259;29;20057;-57
2023/08/30 11:04:18;;;;;;;4.68;3.67;;;;;;;20.16;55.48;99204.59;4860012;29;20050;-60
2023/08/30 11:06:47;;;;;;;4.47;3.47;;;;;;;20.34;55.56;99202.03;4858830;29;20053;-59
2023/08/30 11:09:18;;;;;;;5.45;3.70;;;;;;;20.47;55.14;99203.88;4860056;29;20113;-57
2023/08/30 11:11:45;;;;;;;3.63;3.10;;;;;;;20.57;55.08;99206.34;4860455;29;20053;-58
2023/08/30 11:14:11;;;;;;;8.10;3.50;;;;;;;20.61;54.83;99201.91;4842009;29;20053;-58
2023/08/30 11:16:38;;;;;;;4.95;3.55;;;;;;;20.51;55.21;99204.06;4859840;29;20061;-58
2023/08/30 11:19:05;;;;;;;5.88;3.10;;;;;;;20.40;55.19;99201.59;4857767;29;20417;-57
2023/08/30 11:21:32;;;;;;;3.58;2.92;;;;;;;20.24;55.48;99207.69;4857958;29;20187;-57
2023/08/30 11:23:58;;;;;;;4.00;3.30;;;;;;;20.27;55.65;99204.38;4858346;29;20431;-59
2023/08/30 11:26:24;;;;;;;5.13;2.92;;;;;;;20.33;55.98;99203.94;4858073;29;20054;-59
2023/08/30 11:28:52;;;;;;;7.00;3.38;;;;;;;20.41;55.42;99199.69;4839627;29;20049;-58
2023/08/30 11:31:27;;;;;;;4.90;3.40;;;;;;;20.27;56.11;99212.44;4843927;29;20585;-54
2023/08/30 11:33:57;;;;;;;5.32;3.30;;;;;;;20.10;55.67;99213.91;4840128;29;20042;-56
2023/08/30 11:36:26;;;;;;;4.88;3.55;;;;;;;19.84;55.78;99208.28;4840408;29;20420;-57